sensor_id;sensor_type;location;lat;lon;timestamp;pressure;altitude;pressure_sealevel;temperature
69857;BMP280;57147;53.582;10.112;2023-05-14T00:01:42;101957.69;;;13.32
69857;BMP280;57147;53.582;10.112;2023-05-14T00:06:43;101885.25;;;12.86
69857;BMP280;57147;53.582;10.112;2023-05-14T00:11:46;101949.22;;;13.25
69857;BMP280;57147;53.582;10.112;2023-05-14T00:16:47;101931.50;;;13.05
69857;BMP280;57147;53.582;10.112;2023-05-14T00:21:47;101927.56;;;12.98
69857;BMP280;57147;53.582;10.112;2023-05-14T00:26:50;101920.44;;;12.88
69857;BMP280;57147;53.582;10.112;2023-05-14T00:31:51;101898.13;;;12.74
69857;BMP280;57147;53.582;10.112;2023-05-14T00:36:52;101902.44;;;12.65
69857;BMP280;57147;53.582;10.112;2023-05-14T00:41:55;101892.97;;;12.54
69857;BMP280;57147;53.582;10.112;2023-05-14T00:46:55;101895.38;;;12.45
69857;BMP280;57147;53.582;10.112;2023-05-14T00:51:56;101860.16;;;12.09
69857;BMP280;57147;53.582;10.112;2023-05-14T00:57:00;101842.13;;;11.91
69857;BMP280;57147;53.582;10.112;2023-05-14T01:02:00;101905.91;;;12.21
69857;BMP280;57147;53.582;10.112;2023-05-14T01:07:09;101895.81;;;12.13
69857;BMP280;57147;53.582;10.112;2023-05-14T01:12:18;101911.72;;;12.28
69857;BMP280;57147;53.582;10.112;2023-05-14T01:17:21;101905.88;;;12.26
69857;BMP280;57147;53.582;10.112;2023-05-14T01:22:24;101919.19;;;12.26
69857;BMP280;57147;53.582;10.112;2023-05-14T01:27:35;101921.34;;;12.24
69857;BMP280;57147;53.582;10.112;2023-05-14T01:32:38;101909.63;;;12.20
69857;BMP280;57147;53.582;10.112;2023-05-14T01:37:43;101909.13;;;12.13
69857;BMP280;57147;53.582;10.112;2023-05-14T01:42:44;101898.75;;;12.07
69857;BMP280;57147;53.582;10.112;2023-05-14T01:47:45;101882.06;;;11.86
69857;BMP280;57147;53.582;10.112;2023-05-14T01:52:48;101891.63;;;11.92
69857;BMP280;57147;53.582;10.112;2023-05-14T01:57:49;101887.13;;;11.92
69857;BMP280;57147;53.582;10.112;2023-05-14T02:02:50;101871.16;;;11.82
69857;BMP280;57147;53.582;10.112;2023-05-14T02:08:01;101846.78;;;11.50
69857;BMP280;57147;53.582;10.112;2023-05-14T02:13:02;101870.97;;;11.69
69857;BMP280;57147;53.582;10.112;2023-05-14T02:18:30;101877.84;;;11.75
69857;BMP280;57147;53.582;10.112;2023-05-14T02:23:33;101875.47;;;11.68
69857;BMP280;57147;53.582;10.112;2023-05-14T02:28:35;101805.63;;;11.17
69857;BMP280;57147;53.582;10.112;2023-05-14T02:33:36;101757.31;;;10.80
69857;BMP280;57147;53.582;10.112;2023-05-14T02:39:06;101859.84;;;11.51
69857;BMP280;57147;53.582;10.112;2023-05-14T02:44:14;101853.44;;;11.47
69857;BMP280;57147;53.582;10.112;2023-05-14T02:49:14;101850.28;;;11.45
69857;BMP280;57147;53.582;10.112;2023-05-14T02:54:17;101847.06;;;11.43
69857;BMP280;57147;53.582;10.112;2023-05-14T02:59:18;101844.94;;;11.35
69857;BMP280;57147;53.582;10.112;2023-05-14T03:04:19;101843.38;;;11.29
69857;BMP280;57147;53.582;10.112;2023-05-14T03:09:22;101831.41;;;11.17
69857;BMP280;57147;53.582;10.112;2023-05-14T03:14:22;101827.69;;;11.02
69857;BMP280;57147;53.582;10.112;2023-05-14T03:19:23;101817.31;;;11.01
69857;BMP280;57147;53.582;10.112;2023-05-14T03:24:26;101826.66;;;10.88
69857;BMP280;57147;53.582;10.112;2023-05-14T03:29:27;101767.38;;;10.52
69857;BMP280;57147;53.582;10.112;2023-05-14T03:34:28;101814.16;;;10.73
69857;BMP280;57147;53.582;10.112;2023-05-14T03:39:31;101826.13;;;10.86
69857;BMP280;57147;53.582;10.112;2023-05-14T03:44:32;101842.84;;;10.97
69857;BMP280;57147;53.582;10.112;2023-05-14T03:49:32;101830.91;;;10.89
69857;BMP280;57147;53.582;10.112;2023-05-14T03:54:35;101758.84;;;10.40
69857;BMP280;57147;53.582;10.112;2023-05-14T03:59:36;101843.38;;;10.94
69857;BMP280;57147;53.582;10.112;2023-05-14T04:04:37;101825.81;;;10.93
69857;BMP280;57147;53.582;10.112;2023-05-14T04:09:40;101792.63;;;10.75
69857;BMP280;57147;53.582;10.112;2023-05-14T04:14:41;101773.78;;;10.66
69857;BMP280;57147;53.582;10.112;2023-05-14T04:19:41;101830.59;;;11.06
69857;BMP280;57147;53.582;10.112;2023-05-14T04:24:44;101829.28;;;11.08
69857;BMP280;57147;53.582;10.112;2023-05-14T04:29:45;101834.31;;;11.20
69857;BMP280;57147;53.582;10.112;2023-05-14T04:34:46;101824.75;;;11.29
69857;BMP280;57147;53.582;10.112;2023-05-14T04:39:49;101809.06;;;11.33
69857;BMP280;57147;53.582;10.112;2023-05-14T04:44:49;101804.53;;;11.33
69857;BMP280;57147;53.582;10.112;2023-05-14T04:49:50;101818.88;;;11.52
69857;BMP280;57147;53.582;10.112;2023-05-14T04:54:53;101832.66;;;11.65
69857;BMP280;57147;53.582;10.112;2023-05-14T04:59:54;101786.44;;;11.45
69857;BMP280;57147;53.582;10.112;2023-05-14T05:04:54;101836.28;;;11.89
69857;BMP280;57147;53.582;10.112;2023-05-14T05:09:57;101812.84;;;11.91
69857;BMP280;57147;53.582;10.112;2023-05-14T05:14:58;101815.47;;;12.01
69857;BMP280;57147;53.582;10.112;2023-05-14T05:19:58;101814.91;;;12.09
69857;BMP280;57147;53.582;10.112;2023-05-14T05:25:02;101794.94;;;12.12
69857;BMP280;57147;53.582;10.112;2023-05-14T05:30:03;101811.81;;;12.36
69857;BMP280;57147;53.582;10.112;2023-05-14T05:35:05;101853.38;;;12.71
69857;BMP280;57147;53.582;10.112;2023-05-14T05:40:10;101857.31;;;12.78
69857;BMP280;57147;53.582;10.112;2023-05-14T05:45:10;101859.63;;;12.90
69857;BMP280;57147;53.582;10.112;2023-05-14T05:50:11;101829.81;;;12.88
69857;BMP280;57147;53.582;10.112;2023-05-14T05:55:14;101837.56;;;13.13
69857;BMP280;57147;53.582;10.112;2023-05-14T06:00:16;101869.28;;;13.44
69857;BMP280;57147;53.582;10.112;2023-05-14T06:05:16;101871.53;;;13.55
69857;BMP280;57147;53.582;10.112;2023-05-14T06:10:20;101870.84;;;13.92
69857;BMP280;57147;53.582;10.112;2023-05-14T06:15:21;101873.19;;;14.18
69857;BMP280;57147;53.582;10.112;2023-05-14T06:20:21;101880.03;;;14.42
69857;BMP280;57147;53.582;10.112;2023-05-14T06:25:25;101885.28;;;14.66
69857;BMP280;57147;53.582;10.112;2023-05-14T06:30:25;101870.25;;;14.70
69857;BMP280;57147;53.582;10.112;2023-05-14T06:35:26;101881.22;;;14.87
69857;BMP280;57147;53.582;10.112;2023-05-14T06:40:29;101889.97;;;15.07
69857;BMP280;57147;53.582;10.112;2023-05-14T06:45:30;101884.44;;;15.17
69857;BMP280;57147;53.582;10.112;2023-05-14T06:50:30;101807.41;;;14.86
69857;BMP280;57147;53.582;10.112;2023-05-14T06:55:33;101886.63;;;15.56
69857;BMP280;57147;53.582;10.112;2023-05-14T07:00:34;101838.63;;;15.32
69857;BMP280;57147;53.582;10.112;2023-05-14T07:05:35;101894.53;;;15.88
69857;BMP280;57147;53.582;10.112;2023-05-14T07:10:38;101885.19;;;15.99
69857;BMP280;57147;53.582;10.112;2023-05-14T07:15:39;101852.88;;;15.96
69857;BMP280;57147;53.582;10.112;2023-05-14T07:20:39;101876.16;;;16.31
69857;BMP280;57147;53.582;10.112;2023-05-14T07:25:43;101870.56;;;16.41
69857;BMP280;57147;53.582;10.112;2023-05-14T07:30:44;101874.03;;;16.64
69857;BMP280;57147;53.582;10.112;2023-05-14T07:35:44;101879.66;;;16.85
69857;BMP280;57147;53.582;10.112;2023-05-14T07:40:47;101877.63;;;16.99
69857;BMP280;57147;53.582;10.112;2023-05-14T07:45:48;101879.94;;;17.14
69857;BMP280;57147;53.582;10.112;2023-05-14T07:50:49;101867.19;;;17.28
69857;BMP280;57147;53.582;10.112;2023-05-14T07:55:53;101864.28;;;17.55
69857;BMP280;57147;53.582;10.112;2023-05-14T08:00:54;101867.47;;;17.75
69857;BMP280;57147;53.582;10.112;2023-05-14T08:05:55;101815.97;;;17.73
69857;BMP280;57147;53.582;10.112;2023-05-14T08:10:58;101841.06;;;18.11
69857;BMP280;57147;53.582;10.112;2023-05-14T08:15:59;101833.88;;;18.41
69857;BMP280;57147;53.582;10.112;2023-05-14T08:20:59;101856.69;;;18.81
69857;BMP280;57147;53.582;10.112;2023-05-14T08:26:03;101819.44;;;18.63
69857;BMP280;57147;53.582;10.112;2023-05-14T08:31:04;101855.25;;;18.84
69857;BMP280;57147;53.582;10.112;2023-05-14T08:36:05;101814.88;;;18.84
69857;BMP280;57147;53.582;10.112;2023-05-14T08:41:09;101832.66;;;19.06
69857;BMP280;57147;53.582;10.112;2023-05-14T08:46:12;101838.94;;;19.18
69857;BMP280;57147;53.582;10.112;2023-05-14T08:51:13;101831.31;;;19.50
69857;BMP280;57147;53.582;10.112;2023-05-14T08:56:18;101815.91;;;19.71
69857;BMP280;57147;53.582;10.112;2023-05-14T09:01:19;101808.84;;;19.78
69857;BMP280;57147;53.582;10.112;2023-05-14T09:06:20;101821.00;;;20.17
69857;BMP280;57147;53.582;10.112;2023-05-14T09:11:24;101810.41;;;20.12
69857;BMP280;57147;53.582;10.112;2023-05-14T09:16:25;101815.75;;;20.45
69857;BMP280;57147;53.582;10.112;2023-05-14T09:21:27;101809.78;;;20.64
69857;BMP280;57147;53.582;10.112;2023-05-14T09:26:31;101806.19;;;20.72
69857;BMP280;57147;53.582;10.112;2023-05-14T09:31:32;101779.97;;;20.84
69857;BMP280;57147;53.582;10.112;2023-05-14T09:36:34;101761.41;;;20.95
69857;BMP280;57147;53.582;10.112;2023-05-14T09:41:37;101790.38;;;21.22
69857;BMP280;57147;53.582;10.112;2023-05-14T09:46:40;101797.09;;;21.84
69857;BMP280;57147;53.582;10.112;2023-05-14T09:51:41;101754.88;;;21.95
69857;BMP280;57147;53.582;10.112;2023-05-14T09:56:44;101774.31;;;22.32
69857;BMP280;57147;53.582;10.112;2023-05-14T10:01:45;101777.53;;;22.38
69857;BMP280;57147;53.582;10.112;2023-05-14T10:06:49;101763.84;;;22.15
69857;BMP280;57147;53.582;10.112;2023-05-14T10:11:56;101761.91;;;22.31
69857;BMP280;57147;53.582;10.112;2023-05-14T10:16:58;101757.63;;;22.80
69857;BMP280;57147;53.582;10.112;2023-05-14T10:22:03;101756.84;;;22.99
69857;BMP280;57147;53.582;10.112;2023-05-14T10:27:07;101761.97;;;23.04
69857;BMP280;57147;53.582;10.112;2023-05-14T10:32:08;101768.09;;;23.40
69857;BMP280;57147;53.582;10.112;2023-05-14T10:37:10;101748.84;;;23.06
69857;BMP280;57147;53.582;10.112;2023-05-14T10:42:16;101750.69;;;23.02
69857;BMP280;57147;53.582;10.112;2023-05-14T10:47:17;101730.13;;;23.40
69857;BMP280;57147;53.582;10.112;2023-05-14T10:52:18;101741.63;;;23.33
69857;BMP280;57147;53.582;10.112;2023-05-14T10:57:23;101740.97;;;23.20
69857;BMP280;57147;53.582;10.112;2023-05-14T11:02:25;101732.31;;;23.53
69857;BMP280;57147;53.582;10.112;2023-05-14T11:07:30;101719.41;;;23.47
69857;BMP280;57147;53.582;10.112;2023-05-14T11:12:34;101723.34;;;24.24
69857;BMP280;57147;53.582;10.112;2023-05-14T11:17:36;101720.56;;;24.47
69857;BMP280;57147;53.582;10.112;2023-05-14T11:22:38;101707.03;;;23.95
69857;BMP280;57147;53.582;10.112;2023-05-14T11:27:43;101706.69;;;23.28
69857;BMP280;57147;53.582;10.112;2023-05-14T11:32:45;101686.84;;;23.01
69857;BMP280;57147;53.582;10.112;2023-05-14T11:37:50;101700.38;;;23.01
69857;BMP280;57147;53.582;10.112;2023-05-14T11:42:53;101679.72;;;22.74
69857;BMP280;57147;53.582;10.112;2023-05-14T11:47:54;101677.28;;;22.50
69857;BMP280;57147;53.582;10.112;2023-05-14T11:52:55;101673.22;;;22.05
69857;BMP280;57147;53.582;10.112;2023-05-14T11:57:59;101687.88;;;22.39
69857;BMP280;57147;53.582;10.112;2023-05-14T12:03:00;101651.91;;;22.39
69857;BMP280;57147;53.582;10.112;2023-05-14T12:08:00;101686.38;;;22.42
69857;BMP280;57147;53.582;10.112;2023-05-14T12:13:06;101678.75;;;22.63
69857;BMP280;57147;53.582;10.112;2023-05-14T12:18:08;101650.97;;;23.30
69857;BMP280;57147;53.582;10.112;2023-05-14T12:23:09;101676.19;;;23.54
69857;BMP280;57147;53.582;10.112;2023-05-14T12:28:16;101668.38;;;23.75
69857;BMP280;57147;53.582;10.112;2023-05-14T12:33:17;101663.22;;;23.96
69857;BMP280;57147;53.582;10.112;2023-05-14T12:38:17;101644.75;;;24.31
69857;BMP280;57147;53.582;10.112;2023-05-14T12:43:21;101655.13;;;25.36
69857;BMP280;57147;53.582;10.112;2023-05-14T12:48:21;101647.91;;;26.37
69857;BMP280;57147;53.582;10.112;2023-05-14T12:53:22;101639.03;;;26.58
69857;BMP280;57147;53.582;10.112;2023-05-14T12:58:25;101638.69;;;27.30
69857;BMP280;57147;53.582;10.112;2023-05-14T13:03:26;101630.84;;;27.36
69857;BMP280;57147;53.582;10.112;2023-05-14T13:08:27;101630.41;;;27.65
69857;BMP280;57147;53.582;10.112;2023-05-14T13:13:30;101609.09;;;26.97
69857;BMP280;57147;53.582;10.112;2023-05-14T13:18:31;101636.09;;;25.98
69857;BMP280;57147;53.582;10.112;2023-05-14T13:23:31;101641.81;;;22.93
69857;BMP280;57147;53.582;10.112;2023-05-14T13:28:35;101638.69;;;21.83
69857;BMP280;57147;53.582;10.112;2023-05-14T13:33:37;101628.03;;;21.12
69857;BMP280;57147;53.582;10.112;2023-05-14T13:38:38;101641.63;;;21.15
69857;BMP280;57147;53.582;10.112;2023-05-14T13:43:41;101620.34;;;20.98
69857;BMP280;57147;53.582;10.112;2023-05-14T13:48:42;101598.91;;;21.05
69857;BMP280;57147;53.582;10.112;2023-05-14T13:53:43;101614.28;;;21.32
69857;BMP280;57147;53.582;10.112;2023-05-14T13:58:47;101596.13;;;21.49
69857;BMP280;57147;53.582;10.112;2023-05-14T14:03:47;101592.06;;;21.70
69857;BMP280;57147;53.582;10.112;2023-05-14T14:08:48;101588.81;;;21.65
69857;BMP280;57147;53.582;10.112;2023-05-14T14:13:52;101590.00;;;21.99
69857;BMP280;57147;53.582;10.112;2023-05-14T14:18:52;101583.03;;;22.17
69857;BMP280;57147;53.582;10.112;2023-05-14T14:23:53;101572.00;;;22.64
69857;BMP280;57147;53.582;10.112;2023-05-14T14:28:56;101564.72;;;22.68
69857;BMP280;57147;53.582;10.112;2023-05-14T14:33:59;101556.19;;;22.66
69857;BMP280;57147;53.582;10.112;2023-05-14T14:39:00;101547.34;;;22.69
69857;BMP280;57147;53.582;10.112;2023-05-14T14:44:03;101535.69;;;22.46
69857;BMP280;57147;53.582;10.112;2023-05-14T14:49:04;101535.81;;;22.72
69857;BMP280;57147;53.582;10.112;2023-05-14T14:54:04;101535.91;;;22.98
69857;BMP280;57147;53.582;10.112;2023-05-14T14:59:08;101534.94;;;23.36
69857;BMP280;57147;53.582;10.112;2023-05-14T15:04:08;101502.75;;;23.34
69857;BMP280;57147;53.582;10.112;2023-05-14T15:09:09;101526.53;;;24.04
69857;BMP280;57147;53.582;10.112;2023-05-14T15:14:12;101517.72;;;25.49
69857;BMP280;57147;53.582;10.112;2023-05-14T15:19:13;101506.31;;;26.48
69857;BMP280;57147;53.582;10.112;2023-05-14T15:24:13;101516.38;;;27.18
69857;BMP280;57147;53.582;10.112;2023-05-14T15:29:16;101500.72;;;27.33
69857;BMP280;57147;53.582;10.112;2023-05-14T15:34:17;101499.59;;;28.03
69857;BMP280;57147;53.582;10.112;2023-05-14T15:39:18;101505.69;;;28.21
69857;BMP280;57147;53.582;10.112;2023-05-14T15:44:21;101499.56;;;28.10
69857;BMP280;57147;53.582;10.112;2023-05-14T15:49:22;101489.31;;;28.21
69857;BMP280;57147;53.582;10.112;2023-05-14T15:54:22;101489.19;;;27.87
69857;BMP280;57147;53.582;10.112;2023-05-14T15:59:26;101475.63;;;27.69
69857;BMP280;57147;53.582;10.112;2023-05-14T16:04:26;101490.28;;;27.97
69857;BMP280;57147;53.582;10.112;2023-05-14T16:09:27;101486.91;;;28.30
69857;BMP280;57147;53.582;10.112;2023-05-14T16:14:31;101460.53;;;28.57
69857;BMP280;57147;53.582;10.112;2023-05-14T16:19:32;101459.28;;;28.65
69857;BMP280;57147;53.582;10.112;2023-05-14T16:24:35;101477.16;;;28.73
69857;BMP280;57147;53.582;10.112;2023-05-14T16:29:38;101484.03;;;28.88
69857;BMP280;57147;53.582;10.112;2023-05-14T16:34:39;101481.28;;;28.48
69857;BMP280;57147;53.582;10.112;2023-05-14T16:39:39;101475.34;;;28.12
69857;BMP280;57147;53.582;10.112;2023-05-14T16:44:43;101441.69;;;27.70
69857;BMP280;57147;53.582;10.112;2023-05-14T16:49:43;101470.09;;;27.84
69857;BMP280;57147;53.582;10.112;2023-05-14T16:54:44;101461.91;;;26.90
69857;BMP280;57147;53.582;10.112;2023-05-14T16:59:47;101443.25;;;26.00
69857;BMP280;57147;53.582;10.112;2023-05-14T17:04:48;101461.72;;;25.34
69857;BMP280;57147;53.582;10.112;2023-05-14T17:09:48;101453.63;;;24.87
69857;BMP280;57147;53.582;10.112;2023-05-14T17:14:51;101447.63;;;24.16
69857;BMP280;57147;53.582;10.112;2023-05-14T17:19:52;101462.69;;;23.47
69857;BMP280;57147;53.582;10.112;2023-05-14T17:24:53;101461.69;;;23.06
69857;BMP280;57147;53.582;10.112;2023-05-14T17:29:56;101460.16;;;23.05
69857;BMP280;57147;53.582;10.112;2023-05-14T17:34:56;101463.28;;;23.63
69857;BMP280;57147;53.582;10.112;2023-05-14T17:39:57;101453.63;;;23.99
69857;BMP280;57147;53.582;10.112;2023-05-14T17:45:00;101457.00;;;24.70
69857;BMP280;57147;53.582;10.112;2023-05-14T17:50:01;101461.72;;;25.34
69857;BMP280;57147;53.582;10.112;2023-05-14T17:55:01;101408.81;;;24.12
69857;BMP280;57147;53.582;10.112;2023-05-14T18:00:06;101452.25;;;25.11
69857;BMP280;57147;53.582;10.112;2023-05-14T18:05:07;101451.44;;;25.07
69857;BMP280;57147;53.582;10.112;2023-05-14T18:10:08;101456.81;;;24.08
69857;BMP280;57147;53.582;10.112;2023-05-14T18:15:12;101458.25;;;23.35
69857;BMP280;57147;53.582;10.112;2023-05-14T18:20:12;101466.66;;;22.78
69857;BMP280;57147;53.582;10.112;2023-05-14T18:25:13;101463.78;;;22.45
69857;BMP280;57147;53.582;10.112;2023-05-14T18:30:16;101461.16;;;21.71
69857;BMP280;57147;53.582;10.112;2023-05-14T18:35:17;101471.56;;;21.03
69857;BMP280;57147;53.582;10.112;2023-05-14T18:40:18;101476.72;;;20.65
69857;BMP280;57147;53.582;10.112;2023-05-14T18:45:21;101471.69;;;20.20
69857;BMP280;57147;53.582;10.112;2023-05-14T18:50:22;101474.56;;;19.87
69857;BMP280;57147;53.582;10.112;2023-05-14T18:55:22;101474.34;;;19.56
69857;BMP280;57147;53.582;10.112;2023-05-14T19:00:26;101486.28;;;19.55
69857;BMP280;57147;53.582;10.112;2023-05-14T19:05:26;101479.66;;;19.40
69857;BMP280;57147;53.582;10.112;2023-05-14T19:10:27;101480.63;;;19.11
69857;BMP280;57147;53.582;10.112;2023-05-14T19:15:30;101484.47;;;18.89
69857;BMP280;57147;53.582;10.112;2023-05-14T19:20:31;101478.25;;;18.65
69857;BMP280;57147;53.582;10.112;2023-05-14T19:25:31;101487.34;;;18.39
69857;BMP280;57147;53.582;10.112;2023-05-14T19:30:35;101477.09;;;18.12
69857;BMP280;57147;53.582;10.112;2023-05-14T19:35:35;101481.66;;;17.91
69857;BMP280;57147;53.582;10.112;2023-05-14T19:40:36;101480.47;;;17.80
69857;BMP280;57147;53.582;10.112;2023-05-14T19:45:39;101475.19;;;17.63
69857;BMP280;57147;53.582;10.112;2023-05-14T19:50:40;101479.66;;;17.41
69857;BMP280;57147;53.582;10.112;2023-05-14T19:55:40;101472.78;;;17.23
69857;BMP280;57147;53.582;10.112;2023-05-14T20:00:44;101474.38;;;17.16
69857;BMP280;57147;53.582;10.112;2023-05-14T20:05:44;101474.41;;;17.07
69857;BMP280;57147;53.582;10.112;2023-05-14T20:10:45;101466.69;;;16.97
69857;BMP280;57147;53.582;10.112;2023-05-14T20:15:48;101471.91;;;16.85
69857;BMP280;57147;53.582;10.112;2023-05-14T20:20:49;101461.53;;;16.75
69857;BMP280;57147;53.582;10.112;2023-05-14T20:25:50;101466.41;;;16.73
69857;BMP280;57147;53.582;10.112;2023-05-14T20:30:53;101456.66;;;16.59
69857;BMP280;57147;53.582;10.112;2023-05-14T20:35:54;101434.25;;;16.38
69857;BMP280;57147;53.582;10.112;2023-05-14T20:40:54;101446.38;;;16.44
69857;BMP280;57147;53.582;10.112;2023-05-14T20:45:58;101427.44;;;16.32
69857;BMP280;57147;53.582;10.112;2023-05-14T20:50:58;101438.34;;;16.36
69857;BMP280;57147;53.582;10.112;2023-05-14T20:55:59;101434.69;;;16.23
69857;BMP280;57147;53.582;10.112;2023-05-14T21:01:02;101428.03;;;16.12
69857;BMP280;57147;53.582;10.112;2023-05-14T21:06:03;101422.72;;;16.03
69857;BMP280;57147;53.582;10.112;2023-05-14T21:11:04;101326.44;;;15.33
69857;BMP280;57147;53.582;10.112;2023-05-14T21:16:07;101404.53;;;15.74
69857;BMP280;57147;53.582;10.112;2023-05-14T21:21:08;101392.66;;;15.58
69857;BMP280;57147;53.582;10.112;2023-05-14T21:26:09;101346.22;;;15.15
69857;BMP280;57147;53.582;10.112;2023-05-14T21:31:12;101375.25;;;15.30
69857;BMP280;57147;53.582;10.112;2023-05-14T21:36:13;101376.47;;;15.24
69857;BMP280;57147;53.582;10.112;2023-05-14T21:41:13;101365.69;;;15.07
69857;BMP280;57147;53.582;10.112;2023-05-14T21:46:16;101359.91;;;15.13
69857;BMP280;57147;53.582;10.112;2023-05-14T21:51:17;101351.25;;;15.08
69857;BMP280;57147;53.582;10.112;2023-05-14T21:56:20;101320.91;;;14.81
69857;BMP280;57147;53.582;10.112;2023-05-14T22:01:23;101339.47;;;14.86
69857;BMP280;57147;53.582;10.112;2023-05-14T22:06:24;101326.50;;;14.71
69857;BMP280;57147;53.582;10.112;2023-05-14T22:11:24;101337.53;;;14.78
69857;BMP280;57147;53.582;10.112;2023-05-14T22:16:27;101313.84;;;14.63
69857;BMP280;57147;53.582;10.112;2023-05-14T22:21:28;101334.03;;;14.69
69857;BMP280;57147;53.582;10.112;2023-05-14T22:26:29;101327.97;;;14.55
69857;BMP280;57147;53.582;10.112;2023-05-14T22:31:32;101293.25;;;14.33
69857;BMP280;57147;53.582;10.112;2023-05-14T22:36:32;101301.97;;;14.25
69857;BMP280;57147;53.582;10.112;2023-05-14T22:41:34;101300.03;;;14.17
69857;BMP280;57147;53.582;10.112;2023-05-14T22:46:37;101292.19;;;14.20
69857;BMP280;57147;53.582;10.112;2023-05-14T22:51:37;101291.63;;;14.10
69857;BMP280;57147;53.582;10.112;2023-05-14T22:56:38;101283.84;;;13.99
69857;BMP280;57147;53.582;10.112;2023-05-14T23:01:41;101266.38;;;13.93
69857;BMP280;57147;53.582;10.112;2023-05-14T23:06:42;101261.56;;;13.82
69857;BMP280;57147;53.582;10.112;2023-05-14T23:11:43;101247.81;;;13.75
69857;BMP280;57147;53.582;10.112;2023-05-14T23:16:46;101238.75;;;13.62
69857;BMP280;57147;53.582;10.112;2023-05-14T23:21:46;101220.53;;;13.42
69857;BMP280;57147;53.582;10.112;2023-05-14T23:26:47;101198.22;;;13.24
69857;BMP280;57147;53.582;10.112;2023-05-14T23:31:50;101196.41;;;13.19
69857;BMP280;57147;53.582;10.112;2023-05-14T23:36:51;101173.53;;;13.05
69857;BMP280;57147;53.582;10.112;2023-05-14T23:41:52;101180.63;;;12.96
69857;BMP280;57147;53.582;10.112;2023-05-14T23:46:55;101170.94;;;12.86
69857;BMP280;57147;53.582;10.112;2023-05-14T23:51:55;101161.47;;;12.80
69857;BMP280;57147;53.582;10.112;2023-05-14T23:56:56;101157.31;;;12.74
